Ivanhoe, Texas
Current Conditions -  °F | °C
As of 2:35 AM on Thursday 18 Dec 2014 (Local Time) from KDUA Reporting Station
Overcast Overcast  
Wind Chill: 37°   Ceiling: 300
Heat Index: 37°   Visibility: 7mi
Dew Point: 37°   Wind: 0mph
Humidity: 100%   Direction: NA
Pressure: 30.15"   Gusts: NA
Location:  33.71°N, 96.14°W
Report Text: KDUA 180835Z AUTO 00000KT 7SM OVC003 03/03 A3015 RMK AO2
Loading
Personal Weather Stations






























Interactive Weather Map New forecast layout! Learn more

10-Day Weather Forecast

Advertisements
Track Severe Weather on mobile